Huvudsida
METAR-TAF:

METAR-TAF

Flygplatser :

Antonio B. Won Pat International Airport

Hagåtña, Guam, USA

latitud: 13-29N, longitud: 144-48E, höjd: 91 m

Aktuellt väderrapport

Denna rapport gjordes för 11 minuter sedan, klockan 23:41 UTC
Vind 11 kt från sydväst
Temperatur 30°C
Fuktighet 84%
Tryck 1009 hPa
Sikt: 16.1 km
Brutna moln på en höjd av 2200 ft
Brutna moln på en höjd av 2900 ft

METAR: PGUM 222341Z 23011KT 10SM BKN022 BKN029 30/27 A2980 RMK AO2 T03000267

Tid: 09:52 (23:52 UTC)

Väderprognos

Denna rapport gjordes för 32 minuter sedan, klockan 23:20 UTC
Prognos gäller från 23 kl. 00 UTC till 24 kl. 06 UTC
Vind 7 kt från sydväst
Sikt: 10 km
Få moln på en höjd av 2000 ft
skurar i närheten
Från 23 kl. 0100 UTC
Vind 12 kt från sydväst
Sikt: 10 km
Få moln på en höjd av 1800 ft
Spridda moln på en höjd av 3000 ft
Brutna moln på en höjd av 15000 ft
skurar i närheten

TAF: PGUM 222320Z 2300/2406 23007KT P6SM VCSH FEW020 FM230100 22012KT P6SM VCSH FEW018 SCT030 BKN150

Aktuella väderrapporter och prognoser från 4000 flygplatser (METAR- och TAF-rapporter).

De tillgängliga stationerna syns som gula och röda prickar på kartan.

För musen över prickarna för att se namnen på stationerna.

Klicka sedan för att få väderrapporter och prognoser.

För att ändra kartan: Klicka på de gröna knapparna med ett svart kors på för att zooma in; den gröna knappen med ett streck på för att zooma ut; eller på de gröna pilarna för angränsande kartor.


METAR-TAF: